Time;durP1;ratioP1;P1;durP2;ratioP2;P2;SDS_P1;SDS_P2;PMS_P1;PMS_P2;Temp;Humidity;BMP_temperature;BMP_pressure;BME280_temperature;BME280_humidity;BME280_pressure;Samples;Min_cycle;Max_cycle;Signal;HPM_P1;HPM_P2
2024/01/29 00:00:09;;;;;;;8.93;3.55;;;;;;;;;;4993206;28;20042;-83
2024/01/29 00:02:36;;;;;;;5.65;3.55;;;;;;;;;;5009681;28;20034;-82
2024/01/29 00:05:02;;;;;;;7.53;3.53;;;;;;;;;;4992188;28;20046;-83
2024/01/29 00:07:28;;;;;;;5.03;3.45;;;;;;;;;;4993060;28;20429;-83
2024/01/29 00:09:54;;;;;;;7.32;3.88;;;;;;;;;;4990872;28;20166;-83
2024/01/29 00:12:20;;;;;;;6.28;4.32;;;;;;;;;;4994552;28;20038;-83
2024/01/29 00:14:46;;;;;;;4.93;3.53;;;;;;;;;;5002673;28;20117;-83
2024/01/29 00:17:12;;;;;;;4.68;3.15;;;;;;;;;;4993761;28;20044;-83
2024/01/29 00:19:38;;;;;;;4.70;3.97;;;;;;;;;;4979839;28;20034;-82
2024/01/29 00:22:04;;;;;;;6.70;3.47;;;;;;;;;;5007897;28;20232;-83
2024/01/29 00:24:31;;;;;;;7.20;3.63;;;;;;;;;;5008928;28;20053;-82
2024/01/29 00:26:57;;;;;;;5.18;3.88;;;;;;;;;;5010421;28;20131;-83
2024/01/29 00:29:23;;;;;;;6.93;3.58;;;;;;;;;;5023623;28;20054;-83
2024/01/29 00:31:49;;;;;;;6.57;4.20;;;;;;;;;;5001364;28;20056;-83
2024/01/29 00:34:15;;;;;;;5.03;3.53;;;;;;;;;;5022973;28;20042;-83
2024/01/29 00:36:41;;;;;;;6.03;3.50;;;;;;;;;;4969636;28;20153;-83
2024/01/29 00:39:09;;;;;;;4.95;3.53;;;;;;;;;;4997866;28;20050;-83
2024/01/29 00:41:38;;;;;;;5.80;3.80;;;;;;;;;;5020653;28;20316;-83
2024/01/29 00:44:04;;;;;;;5.10;3.42;;;;;;;;;;4994116;28;20574;-83
2024/01/29 00:46:30;;;;;;;5.32;3.55;;;;;;;;;;4984790;28;20388;-82
2024/01/29 00:48:57;;;;;;;5.28;3.97;;;;;;;;;;5012428;28;20518;-82
2024/01/29 00:51:23;;;;;;;5.57;3.50;;;;;;;;;;4995705;28;20042;-83
2024/01/29 00:53:49;;;;;;;7.00;3.72;;;;;;;;;;5008787;28;20049;-83
2024/01/29 00:56:15;;;;;;;7.25;4.32;;;;;;;;;;4991752;28;20137;-82
2024/01/29 00:58:43;;;;;;;5.78;4.15;;;;;;;;;;4991302;28;20038;-83
2024/01/29 01:01:11;;;;;;;5.80;4.18;;;;;;;;;;5008230;28;20038;-83
2024/01/29 01:03:37;;;;;;;6.35;4.38;;;;;;;;;;4980394;28;20050;-83
2024/01/29 01:06:03;;;;;;;5.85;3.15;;;;;;;;;;5024103;28;20101;-83
2024/01/29 01:08:29;;;;;;;5.03;3.60;;;;;;;;;;5004566;28;20410;-83
2024/01/29 01:10:55;;;;;;;7.72;3.85;;;;;;;;;;4991723;28;20057;-83
2024/01/29 01:13:21;;;;;;;7.53;4.38;;;;;;;;;;4972943;28;20338;-83
2024/01/29 01:15:48;;;;;;;5.25;4.07;;;;;;;;;;5004395;28;20161;-83
2024/01/29 01:18:14;;;;;;;4.95;3.95;;;;;;;;;;5007618;28;20120;-83
2024/01/29 01:20:40;;;;;;;5.88;4.45;;;;;;;;;;5024338;28;20339;-83
2024/01/29 01:23:06;;;;;;;5.32;4.10;;;;;;;;;;4975081;28;20048;-83
2024/01/29 01:25:32;;;;;;;5.60;3.80;;;;;;;;;;4992165;28;20508;-83
2024/01/29 01:27:58;;;;;;;4.93;3.45;;;;;;;;;;4987286;28;20137;-83
2024/01/29 01:30:25;;;;;;;5.10;3.75;;;;;;;;;;5007021;28;20473;-82
2024/01/29 01:32:51;;;;;;;7.07;4.22;;;;;;;;;;4991579;28;20046;-83
2024/01/29 01:35:17;;;;;;;5.72;3.97;;;;;;;;;;5009047;28;20046;-82
2024/01/29 01:37:43;;;;;;;7.43;4.85;;;;;;;;;;4988568;28;20136;-83
2024/01/29 01:40:09;;;;;;;5.72;3.83;;;;;;;;;;4980624;28;20116;-83
2024/01/29 01:42:39;;;;;;;4.43;3.63;;;;;;;;;;5015683;28;20042;-83
2024/01/29 01:45:05;;;;;;;5.20;3.65;;;;;;;;;;5015685;28;20537;-82
2024/01/29 01:47:32;;;;;;;5.78;4.05;;;;;;;;;;4988468;28;20506;-83
2024/01/29 01:49:58;;;;;;;4.78;3.58;;;;;;;;;;4958883;28;20201;-83
2024/01/29 01:52:24;;;;;;;5.30;3.42;;;;;;;;;;5008480;28;20425;-83
2024/01/29 01:54:53;;;;;;;5.43;3.70;;;;;;;;;;4990377;28;20048;-83
2024/01/29 01:57:19;;;;;;;4.80;4.10;;;;;;;;;;4972267;28;20402;-82
2024/01/29 01:59:45;;;;;;;6.65;3.88;;;;;;;;;;4989294;28;20566;-83
2024/01/29 02:02:11;;;;;;;5.53;4.13;;;;;;;;;;4970792;28;20070;-83
2024/01/29 02:04:37;;;;;;;5.88;4.28;;;;;;;;;;5003731;28;20040;-82
2024/01/29 02:07:04;;;;;;;10.23;4.07;;;;;;;;;;5007979;28;20038;-82
2024/01/29 02:09:30;;;;;;;7.97;3.80;;;;;;;;;;4977675;28;20517;-83
2024/01/29 02:11:56;;;;;;;6.85;4.30;;;;;;;;;;4993979;28;20103;-82
2024/01/29 02:14:22;;;;;;;8.48;4.53;;;;;;;;;;4992966;28;20528;-82
2024/01/29 02:16:48;;;;;;;5.10;3.80;;;;;;;;;;4977448;28;20087;-82
2024/01/29 02:19:18;;;;;;;4.95;3.55;;;;;;;;;;5021041;28;20391;-82
2024/01/29 02:21:44;;;;;;;6.68;4.82;;;;;;;;;;5015544;28;20050;-83
2024/01/29 02:24:10;;;;;;;7.13;4.82;;;;;;;;;;5007507;28;20046;-82
2024/01/29 02:26:37;;;;;;;6.93;4.00;;;;;;;;;;4993561;28;20038;-83
2024/01/29 02:29:03;;;;;;;8.00;4.82;;;;;;;;;;5008766;28;20495;-82
2024/01/29 02:31:29;;;;;;;5.75;3.80;;;;;;;;;;4991775;28;20054;-82
2024/01/29 02:33:55;;;;;;;7.18;4.03;;;;;;;;;;4983303;28;20058;-82
2024/01/29 02:36:21;;;;;;;6.60;4.35;;;;;;;;;;5007188;28;20054;-82
2024/01/29 02:38:48;;;;;;;6.43;4.47;;;;;;;;;;5006291;28;20382;-83
2024/01/29 02:41:14;;;;;;;6.47;4.45;;;;;;;;;;4996976;28;20185;-82
2024/01/29 02:43:41;;;;;;;6.88;4.40;;;;;;;;;;4990937;28;20530;-83
2024/01/29 02:46:07;;;;;;;7.53;4.30;;;;;;;;;;4977574;28;20146;-82
2024/01/29 02:48:34;;;;;;;6.68;4.18;;;;;;;;;;4990583;28;20437;-83
2024/01/29 02:51:00;;;;;;;7.57;3.80;;;;;;;;;;5022293;28;20133;-83
2024/01/29 02:53:26;;;;;;;7.43;4.95;;;;;;;;;;5019102;28;20064;-83
2024/01/29 02:55:52;;;;;;;8.40;4.22;;;;;;;;;;4989510;28;20046;-83
2024/01/29 02:58:18;;;;;;;8.10;5.03;;;;;;;;;;4990914;28;20045;-83
2024/01/29 03:00:44;;;;;;;6.03;3.63;;;;;;;;;;5022897;28;20434;-83
2024/01/29 03:03:12;;;;;;;7.95;4.28;;;;;;;;;;5009528;28;20100;-83
2024/01/29 03:05:39;;;;;;;5.13;4.10;;;;;;;;;;5007854;28;20275;-83
2024/01/29 03:08:06;;;;;;;7.32;3.92;;;;;;;;;;5004759;28;20039;-83
2024/01/29 03:10:32;;;;;;;7.47;4.20;;;;;;;;;;5008681;28;20061;-83
2024/01/29 03:12:59;;;;;;;5.43;3.83;;;;;;;;;;4991976;28;20046;-82
2024/01/29 03:15:25;;;;;;;7.85;4.20;;;;;;;;;;4977147;28;20061;-83
2024/01/29 03:17:51;;;;;;;4.55;4.03;;;;;;;;;;4993368;28;20458;-82
2024/01/29 03:20:17;;;;;;;4.95;3.88;;;;;;;;;;4990751;28;20359;-82
2024/01/29 03:22:43;;;;;;;5.80;4.40;;;;;;;;;;5001450;28;20057;-83
2024/01/29 03:25:09;;;;;;;7.75;4.75;;;;;;;;;;5025120;28;20045;-83
2024/01/29 03:27:35;;;;;;;6.22;3.80;;;;;;;;;;4992445;28;20418;-83
2024/01/29 03:30:02;;;;;;;6.65;4.05;;;;;;;;;;5008815;28;20058;-83
2024/01/29 03:32:28;;;;;;;6.70;4.30;;;;;;;;;;4989048;28;20047;-83
2024/01/29 03:34:54;;;;;;;6.55;4.10;;;;;;;;;;5016638;28;20034;-83
2024/01/29 03:37:20;;;;;;;7.28;4.00;;;;;;;;;;4969785;28;20035;-83
2024/01/29 03:39:46;;;;;;;5.93;4.47;;;;;;;;;;5006159;28;20108;-82
2024/01/29 03:42:12;;;;;;;9.25;4.45;;;;;;;;;;4990055;28;20042;-83
2024/01/29 03:44:38;;;;;;;12.60;4.95;;;;;;;;;;5001437;28;20117;-83
2024/01/29 03:47:04;;;;;;;6.15;4.47;;;;;;;;;;5001566;28;20044;-83
2024/01/29 03:49:31;;;;;;;10.82;5.15;;;;;;;;;;4987556;28;20141;-83
2024/01/29 03:51:57;;;;;;;5.13;4.07;;;;;;;;;;5017509;28;20049;-83
2024/01/29 03:54:23;;;;;;;6.90;4.15;;;;;;;;;;4988899;28;20266;-83
2024/01/29 03:56:49;;;;;;;7.03;4.35;;;;;;;;;;5001628;28;20038;-83
2024/01/29 03:59:15;;;;;;;7.70;4.55;;;;;;;;;;5025813;28;20050;-82
2024/01/29 04:01:41;;;;;;;6.07;4.40;;;;;;;;;;5007297;28;20053;-82
2024/01/29 04:04:10;;;;;;;7.00;4.63;;;;;;;;;;4992283;28;20628;-82
2024/01/29 04:06:40;;;;;;;6.65;4.28;;;;;;;;;;4977134;28;20042;-83
2024/01/29 04:09:09;;;;;;;7.38;4.20;;;;;;;;;;5007651;28;20046;-83
2024/01/29 04:11:36;;;;;;;6.70;4.15;;;;;;;;;;4976064;28;20030;-83
2024/01/29 04:14:02;;;;;;;6.57;4.18;;;;;;;;;;4992766;28;20366;-83
2024/01/29 04:16:28;;;;;;;5.88;4.03;;;;;;;;;;5008131;28;20054;-83
2024/01/29 04:18:54;;;;;;;6.53;3.67;;;;;;;;;;4992170;28;20049;-83
2024/01/29 04:21:20;;;;;;;9.77;5.55;;;;;;;;;;4990435;28;20414;-82
2024/01/29 04:23:46;;;;;;;7.20;4.95;;;;;;;;;;4987729;28;20034;-83
2024/01/29 04:26:12;;;;;;;8.32;4.80;;;;;;;;;;4991952;28;20058;-83
2024/01/29 04:28:39;;;;;;;7.32;4.40;;;;;;;;;;4988439;28;20132;-83
2024/01/29 04:31:05;;;;;;;6.35;4.30;;;;;;;;;;4970992;28;20077;-83
2024/01/29 04:33:31;;;;;;;8.27;4.55;;;;;;;;;;4992594;28;20046;-83
2024/01/29 04:35:57;;;;;;;5.90;4.65;;;;;;;;;;4989003;28;20535;-83
2024/01/29 04:38:23;;;;;;;7.50;5.35;;;;;;;;;;4990655;28;20046;-83
2024/01/29 04:40:49;;;;;;;5.68;4.68;;;;;;;;;;4981999;28;20038;-83
2024/01/29 04:43:15;;;;;;;7.40;4.43;;;;;;;;;;4977371;28;20081;-83
2024/01/29 04:45:42;;;;;;;6.13;4.40;;;;;;;;;;4976832;28;20495;-83
2024/01/29 04:48:08;;;;;;;5.70;4.43;;;;;;;;;;4973105;28;20277;-83
2024/01/29 04:50:34;;;;;;;6.80;4.80;;;;;;;;;;5024452;28;20050;-83
2024/01/29 04:53:01;;;;;;;8.20;5.40;;;;;;;;;;4989234;28;20438;-83
2024/01/29 04:55:27;;;;;;;7.40;4.70;;;;;;;;;;5020957;28;20343;-82
2024/01/29 04:57:53;;;;;;;6.88;4.22;;;;;;;;;;5022181;28;20046;-83
2024/01/29 05:00:19;;;;;;;7.15;4.60;;;;;;;;;;4990534;28;20046;-83
2024/01/29 05:02:47;;;;;;;6.05;4.38;;;;;;;;;;4989221;28;20097;-83
2024/01/29 05:05:14;;;;;;;7.60;4.93;;;;;;;;;;5005237;28;20048;-83
2024/01/29 05:07:40;;;;;;;6.93;4.32;;;;;;;;;;5006377;28;20038;-83
2024/01/29 05:10:07;;;;;;;7.82;5.07;;;;;;;;;;5021506;28;20056;-83
2024/01/29 05:12:34;;;;;;;6.93;4.90;;;;;;;;;;5008425;28;20122;-83
2024/01/29 05:15:00;;;;;;;5.60;4.63;;;;;;;;;;5022014;28;20241;-83
2024/01/29 05:17:26;;;;;;;9.93;5.28;;;;;;;;;;4989097;28;20591;-83
2024/01/29 05:19:52;;;;;;;7.25;4.88;;;;;;;;;;4997179;28;20453;-83
2024/01/29 05:22:18;;;;;;;6.05;4.43;;;;;;;;;;4992170;28;20045;-83
2024/01/29 05:24:44;;;;;;;7.32;5.00;;;;;;;;;;4975728;28;20042;-83
2024/01/29 05:27:11;;;;;;;6.35;4.70;;;;;;;;;;4991216;28;20101;-83
2024/01/29 05:29:37;;;;;;;6.70;4.72;;;;;;;;;;5023844;28;20058;-83
2024/01/29 05:32:03;;;;;;;6.40;4.40;;;;;;;;;;5002699;28;20101;-83
2024/01/29 05:34:29;;;;;;;5.70;4.03;;;;;;;;;;5000916;28;20043;-83
2024/01/29 05:36:55;;;;;;;7.47;4.30;;;;;;;;;;5008209;28;20093;-83
2024/01/29 05:39:21;;;;;;;7.10;4.22;;;;;;;;;;4987770;28;20379;-83
2024/01/29 05:41:47;;;;;;;6.45;4.50;;;;;;;;;;5009018;28;20146;-83
2024/01/29 05:44:15;;;;;;;7.32;5.00;;;;;;;;;;5021113;28;20050;-83
2024/01/29 05:46:41;;;;;;;6.53;4.85;;;;;;;;;;4972331;28;20128;-83
2024/01/29 05:49:07;;;;;;;7.25;4.15;;;;;;;;;;4984967;28;20511;-83
2024/01/29 05:51:33;;;;;;;9.27;5.90;;;;;;;;;;4987212;28;20102;-83
2024/01/29 05:54:00;;;;;;;7.13;5.38;;;;;;;;;;5017758;28;20038;-83
2024/01/29 05:56:26;;;;;;;9.68;5.43;;;;;;;;;;5009936;28;20050;-82
2024/01/29 05:58:52;;;;;;;7.72;4.75;;;;;;;;;;4987427;28;20053;-83
2024/01/29 06:01:18;;;;;;;7.03;5.18;;;;;;;;;;5020847;28;20055;-83
2024/01/29 06:03:44;;;;;;;12.57;4.88;;;;;;;;;;5023107;28;20042;-83
2024/01/29 06:06:10;;;;;;;8.65;4.90;;;;;;;;;;5027011;28;20435;-83
2024/01/29 06:08:36;;;;;;;9.75;6.18;;;;;;;;;;4991820;28;20058;-83
2024/01/29 06:11:03;;;;;;;8.07;4.72;;;;;;;;;;4985279;28;20051;-83
2024/01/29 06:13:29;;;;;;;7.95;5.13;;;;;;;;;;5004203;28;20077;-82
2024/01/29 06:15:55;;;;;;;8.82;5.57;;;;;;;;;;4976383;28;20454;-82
2024/01/29 06:18:21;;;;;;;9.75;5.70;;;;;;;;;;4993075;28;20069;-82
2024/01/29 06:20:49;;;;;;;7.05;5.43;;;;;;;;;;5014211;28;20039;-82
2024/01/29 06:23:15;;;;;;;5.60;4.10;;;;;;;;;;5020341;28;20038;-83
2024/01/29 06:25:41;;;;;;;5.88;4.45;;;;;;;;;;5006873;28;20529;-82
2024/01/29 06:28:07;;;;;;;7.72;5.40;;;;;;;;;;5020571;28;20137;-83
2024/01/29 06:30:34;;;;;;;7.00;5.35;;;;;;;;;;4988870;28;20144;-83
2024/01/29 06:33:00;;;;;;;8.98;4.95;;;;;;;;;;4993932;28;20041;-83
2024/01/29 06:35:26;;;;;;;8.13;6.05;;;;;;;;;;5009856;28;20035;-82
2024/01/29 06:37:52;;;;;;;9.27;4.72;;;;;;;;;;5022536;28;20034;-84
2024/01/29 06:40:22;;;;;;;6.72;4.90;;;;;;;;;;4999361;28;20035;-83
2024/01/29 06:42:48;;;;;;;7.03;4.80;;;;;;;;;;4986096;28;20051;-84
2024/01/29 06:45:15;;;;;;;9.25;5.18;;;;;;;;;;5024176;28;20054;-84
2024/01/29 06:47:41;;;;;;;9.70;5.07;;;;;;;;;;5025748;28;20050;-84
2024/01/29 06:50:08;;;;;;;6.53;4.82;;;;;;;;;;4990748;28;20065;-83
2024/01/29 06:52:35;;;;;;;6.93;5.57;;;;;;;;;;4994020;28;20073;-84
2024/01/29 06:55:01;;;;;;;7.00;4.80;;;;;;;;;;4991294;28;20520;-83
2024/01/29 06:57:27;;;;;;;8.07;5.68;;;;;;;;;;4962207;28;20097;-84
2024/01/29 06:59:53;;;;;;;9.27;5.25;;;;;;;;;;4993390;28;20042;-83
2024/01/29 07:02:21;;;;;;;9.80;5.13;;;;;;;;;;4989846;28;20050;-84
2024/01/29 07:04:48;;;;;;;8.80;5.82;;;;;;;;;;5007238;28;20039;-83
2024/01/29 07:07:14;;;;;;;7.32;5.53;;;;;;;;;;4994190;28;20045;-83
2024/01/29 07:09:41;;;;;;;7.13;5.18;;;;;;;;;;4978109;28;20413;-84
2024/01/29 07:12:07;;;;;;;7.63;5.93;;;;;;;;;;5019516;28;20038;-83
2024/01/29 07:14:34;;;;;;;8.00;5.75;;;;;;;;;;5010884;28;20030;-84
2024/01/29 07:17:01;;;;;;;7.18;5.25;;;;;;;;;;5006609;28;20042;-84
2024/01/29 07:19:32;;;;;;;10.75;6.57;;;;;;;;;;4983375;28;20048;-83
2024/01/29 07:21:59;;;;;;;7.43;5.75;;;;;;;;;;5003904;28;20047;-84
2024/01/29 07:24:25;;;;;;;8.20;6.20;;;;;;;;;;4987523;28;20057;-83
2024/01/29 07:26:51;;;;;;;8.98;5.10;;;;;;;;;;5005828;28;20085;-84
2024/01/29 07:29:17;;;;;;;9.38;5.55;;;;;;;;;;4989534;28;20481;-84
2024/01/29 07:31:43;;;;;;;11.07;6.93;;;;;;;;;;5016063;28;20134;-84
2024/01/29 07:34:09;;;;;;;10.20;6.28;;;;;;;;;;5020712;28;20106;-83
2024/01/29 07:36:40;;;;;;;8.98;6.45;;;;;;;;;;5006675;28;20045;-83
2024/01/29 07:39:06;;;;;;;7.38;5.65;;;;;;;;;;4988400;28;20392;-84
2024/01/29 07:41:32;;;;;;;8.70;6.57;;;;;;;;;;5000991;28;20085;-84
2024/01/29 07:43:58;;;;;;;10.60;6.07;;;;;;;;;;4985822;28;20050;-84
2024/01/29 07:46:24;;;;;;;7.20;5.50;;;;;;;;;;5004024;28;20047;-84
2024/01/29 07:48:50;;;;;;;9.18;6.28;;;;;;;;;;4996265;28;20449;-84
2024/01/29 07:51:17;;;;;;;7.60;5.70;;;;;;;;;;4975246;28;20367;-84
2024/01/29 07:53:43;;;;;;;9.18;6.50;;;;;;;;;;4975049;28;20201;-84
2024/01/29 07:56:10;;;;;;;9.73;6.25;;;;;;;;;;4988887;28;20198;-84
2024/01/29 07:58:36;;;;;;;9.55;6.03;;;;;;;;;;4988820;28;20490;-84
2024/01/29 08:01:02;;;;;;;9.18;6.40;;;;;;;;;;4988446;28;20422;-84
2024/01/29 08:03:28;;;;;;;8.55;6.10;;;;;;;;;;4983572;28;20418;-84
2024/01/29 08:05:54;;;;;;;9.57;5.72;;;;;;;;;;4999547;28;20057;-84
2024/01/29 08:08:21;;;;;;;9.10;6.38;;;;;;;;;;4996108;28;20038;-84
2024/01/29 08:10:48;;;;;;;9.07;6.60;;;;;;;;;;4986296;28;20035;-84
2024/01/29 08:13:14;;;;;;;9.93;6.68;;;;;;;;;;4983737;28;20041;-84
2024/01/29 08:15:40;;;;;;;7.78;6.38;;;;;;;;;;5003418;28;20564;-85
2024/01/29 08:18:06;;;;;;;8.10;5.95;;;;;;;;;;5001336;28;20422;-84
2024/01/29 08:20:32;;;;;;;9.50;6.05;;;;;;;;;;4990562;28;20039;-84
2024/01/29 08:22:59;;;;;;;8.93;6.38;;;;;;;;;;4987907;28;20054;-84
2024/01/29 08:25:26;;;;;;;8.13;6.40;;;;;;;;;;4985426;28;20177;-85
2024/01/29 08:27:52;;;;;;;8.30;6.13;;;;;;;;;;4986387;28;20042;-85
2024/01/29 08:30:18;;;;;;;8.02;6.40;;;;;;;;;;5005626;28;20135;-84
2024/01/29 08:32:44;;;;;;;6.80;5.65;;;;;;;;;;4987867;28;20044;-85
2024/01/29 08:35:11;;;;;;;8.85;6.32;;;;;;;;;;4987698;28;20046;-84
2024/01/29 08:37:37;;;;;;;9.40;7.63;;;;;;;;;;4987228;28;20046;-85
2024/01/29 08:40:03;;;;;;;11.90;6.60;;;;;;;;;;5005850;28;20379;-85
2024/01/29 08:42:29;;;;;;;8.93;5.60;;;;;;;;;;4989468;28;20426;-84
2024/01/29 08:44:56;;;;;;;9.23;6.32;;;;;;;;;;5022401;28;20125;-85
2024/01/29 08:47:25;;;;;;;8.90;6.70;;;;;;;;;;4988606;28;20112;-84
2024/01/29 08:49:51;;;;;;;8.65;6.28;;;;;;;;;;4987854;28;20122;-84
2024/01/29 08:52:17;;;;;;;7.53;6.05;;;;;;;;;;4989267;28;20046;-84
2024/01/29 08:54:44;;;;;;;8.43;6.28;;;;;;;;;;4986093;28;20384;-84
2024/01/29 08:57:11;;;;;;;7.97;5.68;;;;;;;;;;5000690;28;20044;-84
2024/01/29 08:59:38;;;;;;;7.22;6.10;;;;;;;;;;4988969;28;20046;-84
2024/01/29 09:02:05;;;;;;;10.18;6.95;;;;;;;;;;4989912;28;20046;-85
2024/01/29 09:04:31;;;;;;;8.90;5.82;;;;;;;;;;4963926;28;20050;-84
2024/01/29 09:06:57;;;;;;;9.18;6.82;;;;;;;;;;4985209;28;20042;-85
2024/01/29 09:09:23;;;;;;;9.85;6.63;;;;;;;;;;5016393;28;20049;-85
2024/01/29 09:11:51;;;;;;;10.45;7.38;;;;;;;;;;4989573;28;20042;-85
2024/01/29 09:14:18;;;;;;;10.70;6.25;;;;;;;;;;4984391;28;20633;-85
2024/01/29 09:16:44;;;;;;;8.55;6.57;;;;;;;;;;4988019;28;20050;-84
2024/01/29 09:19:10;;;;;;;7.80;5.82;;;;;;;;;;4976056;28;20085;-85
2024/01/29 09:21:36;;;;;;;11.70;5.57;;;;;;;;;;5005947;28;20041;-84
2024/01/29 09:24:03;;;;;;;9.50;6.47;;;;;;;;;;4992626;28;20100;-85
2024/01/29 09:26:29;;;;;;;8.68;5.90;;;;;;;;;;5005057;28;20516;-84
2024/01/29 09:28:56;;;;;;;12.55;7.47;;;;;;;;;;5024722;28;20084;-83
2024/01/29 09:31:22;;;;;;;9.73;6.97;;;;;;;;;;5011757;28;20050;-85
2024/01/29 09:33:48;;;;;;;8.88;5.78;;;;;;;;;;4993983;28;20030;-85
2024/01/29 09:36:14;;;;;;;10.80;6.05;;;;;;;;;;5027540;28;20133;-85
2024/01/29 09:38:40;;;;;;;11.43;6.90;;;;;;;;;;4989179;28;20212;-85
2024/01/29 09:41:06;;;;;;;8.70;6.70;;;;;;;;;;5022698;28;20042;-84
2024/01/29 09:43:37;;;;;;;10.45;6.78;;;;;;;;;;4991415;28;20402;-84
2024/01/29 09:46:04;;;;;;;7.10;6.13;;;;;;;;;;5004653;28;20121;-85
2024/01/29 09:48:33;;;;;;;9.32;6.22;;;;;;;;;;5023010;28;20042;-85
2024/01/29 09:51:00;;;;;;;9.07;6.65;;;;;;;;;;5024004;28;20057;-85
2024/01/29 09:53:26;;;;;;;9.90;6.65;;;;;;;;;;5003327;28;20038;-85
2024/01/29 09:55:53;;;;;;;11.32;7.53;;;;;;;;;;4977354;28;20046;-85
2024/01/29 09:58:19;;;;;;;9.63;7.45;;;;;;;;;;4990058;28;20048;-85
2024/01/29 10:00:45;;;;;;;8.25;6.22;;;;;;;;;;4993777;28;20053;-84
2024/01/29 10:03:19;;;;;;;11.90;7.35;;;;;;;;;;5005901;28;20034;-85
2024/01/29 10:05:45;;;;;;;12.02;6.88;;;;;;;;;;5021576;28;20077;-84
2024/01/29 10:08:12;;;;;;;7.32;6.13;;;;;;;;;;4973077;28;20037;-85
2024/01/29 10:10:38;;;;;;;11.05;7.35;;;;;;;;;;5003543;28;20441;-84
2024/01/29 10:13:08;;;;;;;12.35;7.05;;;;;;;;;;4988161;28;20163;-84
2024/01/29 10:15:34;;;;;;;9.10;5.72;;;;;;;;;;4998881;28;20141;-84
2024/01/29 10:18:00;;;;;;;9.52;6.85;;;;;;;;;;4993011;28;20061;-85
2024/01/29 10:20:27;;;;;;;9.55;7.57;;;;;;;;;;4993923;28;20434;-84
2024/01/29 10:23:00;;;;;;;10.23;6.85;;;;;;;;;;5005353;28;20418;-85
2024/01/29 10:25:26;;;;;;;;;;;;;;;;;;4993595;28;20050;-85
2024/01/29 10:27:52;;;;;;;9.95;6.68;;;;;;;;;;5026560;28;19999;-85
2024/01/29 10:30:18;;;;;;;8.73;6.85;;;;;;;;;;4993223;28;20050;-85
2024/01/29 10:32:45;;;;;;;9.63;6.30;;;;;;;;;;4992519;28;20122;-85
2024/01/29 10:35:12;;;;;;;10.35;6.20;;;;;;;;;;5014858;28;20057;-85
2024/01/29 10:37:38;;;;;;;10.75;7.07;;;;;;;;;;4992665;28;20430;-84
2024/01/29 10:40:06;;;;;;;10.30;7.70;;;;;;;;;;4991776;28;20406;-84
2024/01/29 10:42:32;;;;;;;9.18;6.18;;;;;;;;;;5001244;28;20042;-85
2024/01/29 10:44:59;;;;;;;8.23;6.15;;;;;;;;;;4983424;28;20068;-84
2024/01/29 10:47:29;;;;;;;8.45;6.80;;;;;;;;;;4993778;28;20092;-85
2024/01/29 10:49:59;;;;;;;7.60;6.18;;;;;;;;;;5002348;28;20053;-85
2024/01/29 10:52:27;;;;;;;9.05;6.78;;;;;;;;;;4974112;28;20038;-85
2024/01/29 10:54:55;;;;;;;8.85;5.47;;;;;;;;;;4990825;28;20398;-84
2024/01/29 10:57:21;;;;;;;8.88;6.53;;;;;;;;;;5004000;28;20030;-85
2024/01/29 10:59:48;;;;;;;9.48;6.32;;;;;;;;;;4977111;28;20121;-85
2024/01/29 11:02:14;;;;;;;9.95;6.00;;;;;;;;;;4999008;28;20035;-85
2024/01/29 11:04:40;;;;;;;10.80;7.40;;;;;;;;;;4995235;28;20438;-84
2024/01/29 11:07:15;;;;;;;11.63;6.20;;;;;;;;;;4974602;28;20375;-85
2024/01/29 11:09:45;;;;;;;8.05;6.40;;;;;;;;;;4987801;28;20045;-85
2024/01/29 11:12:13;;;;;;;9.02;6.45;;;;;;;;;;4994256;28;20038;-85
2024/01/29 11:14:39;;;;;;;10.00;6.72;;;;;;;;;;4989752;28;20034;-85
2024/01/29 11:17:07;;;;;;;11.23;7.07;;;;;;;;;;4988739;28;20588;-85
2024/01/29 11:19:34;;;;;;;10.55;7.80;;;;;;;;;;5010673;28;20069;-85
2024/01/29 11:22:01;;;;;;;10.32;7.07;;;;;;;;;;5007263;28;20038;-85
2024/01/29 11:24:27;;;;;;;13.75;7.38;;;;;;;;;;4997241;28;20051;-85
2024/01/29 11:26:53;;;;;;;10.40;7.35;;;;;;;;;;4982666;28;20046;-85
2024/01/29 11:29:21;;;;;;;8.35;6.50;;;;;;;;;;5006390;28;20050;-85
2024/01/29 11:31:48;;;;;;;12.80;7.20;;;;;;;;;;4982404;28;20050;-85
2024/01/29 11:34:14;;;;;;;12.32;7.97;;;;;;;;;;5017872;28;20089;-85
2024/01/29 11:36:40;;;;;;;12.63;6.95;;;;;;;;;;4972070;28;20043;-85
2024/01/29 11:39:08;;;;;;;13.38;6.95;;;;;;;;;;5002854;28;20049;-84
2024/01/29 11:41:38;;;;;;;10.30;7.32;;;;;;;;;;4999929;28;20050;-85
2024/01/29 11:44:04;;;;;;;13.82;8.65;;;;;;;;;;5021376;28;20104;-85
2024/01/29 11:46:31;;;;;;;12.25;7.75;;;;;;;;;;4974744;28;20057;-85
2024/01/29 11:49:00;;;;;;;17.45;8.57;;;;;;;;;;5002366;28;20396;-85
2024/01/29 11:51:29;;;;;;;16.45;8.65;;;;;;;;;;5015462;28;20042;-85
2024/01/29 11:53:55;;;;;;;12.35;7.80;;;;;;;;;;4988505;28;20129;-85
2024/01/29 11:56:21;;;;;;;12.10;8.45;;;;;;;;;;4986137;28;20162;-85
2024/01/29 11:59:01;;;;;;;14.60;8.73;;;;;;;;;;4977193;28;20046;-85
2024/01/29 12:01:27;;;;;;;19.20;9.23;;;;;;;;;;4988255;28;20044;-86
2024/01/29 12:03:53;;;;;;;12.48;8.90;;;;;;;;;;4982085;28;20082;-84
2024/01/29 12:06:19;;;;;;;18.73;9.15;;;;;;;;;;5015121;28;20039;-85
2024/01/29 12:08:49;;;;;;;16.83;9.07;;;;;;;;;;5001323;28;20085;-84
2024/01/29 12:11:16;;;;;;;15.55;8.05;;;;;;;;;;5002785;28;20034;-84
2024/01/29 12:13:42;;;;;;;16.90;9.23;;;;;;;;;;5004387;28;20058;-84
2024/01/29 12:16:09;;;;;;;21.75;11.23;;;;;;;;;;5002068;28;20066;-83
2024/01/29 12:18:38;;;;;;;18.92;9.30;;;;;;;;;;4992793;28;20043;-84
2024/01/29 12:21:05;;;;;;;23.55;10.93;;;;;;;;;;4989328;28;20037;-83
2024/01/29 12:23:31;;;;;;;19.33;9.98;;;;;;;;;;4986758;28;20095;-83
2024/01/29 12:25:58;;;;;;;17.00;10.32;;;;;;;;;;4970365;28;20074;-84
2024/01/29 12:28:27;;;;;;;19.73;10.00;;;;;;;;;;4987728;28;20274;-84
2024/01/29 12:30:58;;;;;;;31.35;11.75;;;;;;;;;;5001094;28;20068;-83
2024/01/29 12:33:28;;;;;;;20.45;10.00;;;;;;;;;;4980951;28;20449;-84
2024/01/29 12:35:55;;;;;;;19.60;10.48;;;;;;;;;;4988523;28;20527;-84
2024/01/29 12:38:22;;;;;;;16.40;11.02;;;;;;;;;;4976507;28;20042;-84
2024/01/29 12:40:49;;;;;;;25.17;10.13;;;;;;;;;;4987870;28;20090;-83
2024/01/29 12:43:16;;;;;;;20.60;10.52;;;;;;;;;;4985874;28;20113;-84
2024/01/29 12:45:44;;;;;;;18.23;11.57;;;;;;;;;;4976285;28;20077;-84
2024/01/29 12:48:10;;;;;;;14.80;10.98;;;;;;;;;;4974524;28;20043;-84
2024/01/29 12:50:38;;;;;;;20.15;10.07;;;;;;;;;;4986433;28;20351;-84
2024/01/29 12:53:04;;;;;;;19.38;10.00;;;;;;;;;;4987732;28;20486;-86
2024/01/29 12:55:30;;;;;;;16.38;10.43;;;;;;;;;;4993493;28;20073;-86
2024/01/29 12:57:57;;;;;;;18.35;9.80;;;;;;;;;;4988029;28;20045;-85
2024/01/29 13:00:23;;;;;;;20.35;10.32;;;;;;;;;;4999422;28;20478;-86
2024/01/29 13:02:51;;;;;;;18.10;10.88;;;;;;;;;;4984016;28;20137;-86
2024/01/29 13:05:17;;;;;;;15.15;8.60;;;;;;;;;;4987855;28;20030;-86
2024/01/29 13:07:43;;;;;;;19.58;9.50;;;;;;;;;;5002358;28;20042;-86
2024/01/29 13:10:11;;;;;;;15.70;9.00;;;;;;;;;;4978242;28;20164;-85
2024/01/29 13:12:38;;;;;;;16.88;10.32;;;;;;;;;;5001594;28;20125;-85
2024/01/29 13:15:04;;;;;;;17.27;9.27;;;;;;;;;;4961584;28;20043;-85
2024/01/29 13:17:30;;;;;;;15.52;9.77;;;;;;;;;;4999602;28;20043;-85
2024/01/29 13:19:57;;;;;;;16.33;10.70;;;;;;;;;;5002381;28;20077;-84
2024/01/29 13:22:23;;;;;;;14.43;8.27;;;;;;;;;;4986402;28;20057;-85
2024/01/29 13:24:50;;;;;;;19.55;9.48;;;;;;;;;;5018493;28;20505;-85
2024/01/29 13:27:16;;;;;;;15.40;10.27;;;;;;;;;;4993569;28;20041;-85
2024/01/29 13:29:43;;;;;;;12.32;7.85;;;;;;;;;;4977848;28;20164;-85
2024/01/29 13:32:09;;;;;;;13.88;8.35;;;;;;;;;;5014068;28;20072;-84
2024/01/29 13:34:35;;;;;;;17.25;8.77;;;;;;;;;;5002768;28;20045;-84
2024/01/29 13:37:01;;;;;;;17.85;8.80;;;;;;;;;;4987696;28;20061;-84
2024/01/29 13:39:27;;;;;;;13.95;8.57;;;;;;;;;;5002524;28;20289;-85
2024/01/29 13:41:53;;;;;;;13.73;9.00;;;;;;;;;;4983473;28;20054;-84
2024/01/29 13:44:19;;;;;;;13.60;9.45;;;;;;;;;;4986227;28;20048;-84
2024/01/29 13:46:45;;;;;;;13.85;8.32;;;;;;;;;;4982043;28;20047;-85
2024/01/29 13:49:12;;;;;;;11.25;8.35;;;;;;;;;;4985460;28;20082;-85
2024/01/29 13:51:38;;;;;;;11.95;8.25;;;;;;;;;;4967509;28;21057;-85
2024/01/29 13:54:04;;;;;;;11.80;8.73;;;;;;;;;;4998595;28;20042;-85
2024/01/29 13:56:30;;;;;;;14.95;9.23;;;;;;;;;;4983676;28;20030;-85
2024/01/29 13:58:56;;;;;;;12.10;8.27;;;;;;;;;;4986704;28;20402;-85
2024/01/29 14:01:22;;;;;;;12.73;8.80;;;;;;;;;;4964388;28;20355;-85
2024/01/29 14:03:49;;;;;;;10.93;7.53;;;;;;;;;;4992484;28;20133;-85
2024/01/29 14:06:15;;;;;;;12.10;8.32;;;;;;;;;;5009873;28;20464;-85
2024/01/29 14:08:41;;;;;;;11.50;8.65;;;;;;;;;;4986719;28;20406;-86
2024/01/29 14:11:07;;;;;;;12.00;7.13;;;;;;;;;;4986236;28;20041;-85
2024/01/29 14:13:37;;;;;;;13.13;7.75;;;;;;;;;;4966562;28;20098;-85
2024/01/29 14:16:04;;;;;;;13.20;9.13;;;;;;;;;;4987508;28;20038;-85
2024/01/29 14:18:34;;;;;;;11.10;8.82;;;;;;;;;;4980655;28;20051;-85
2024/01/29 14:21:04;;;;;;;12.23;8.25;;;;;;;;;;4997522;28;20421;-85
2024/01/29 14:23:30;;;;;;;12.55;8.25;;;;;;;;;;4983412;28;20113;-84
2024/01/29 14:25:56;;;;;;;14.75;8.20;;;;;;;;;;4985302;28;20363;-85
2024/01/29 14:28:22;;;;;;;11.18;8.13;;;;;;;;;;4995307;28;20158;-85
2024/01/29 14:30:49;;;;;;;10.90;8.20;;;;;;;;;;5013069;28;20055;-85
2024/01/29 14:33:15;;;;;;;11.25;7.95;;;;;;;;;;4986958;28;20050;-85